createdAt,value
2022-12-26T00:02:05.918Z,56.09
2022-12-26T00:04:49.646Z,56.23
2022-12-26T00:07:24.429Z,56.18
2022-12-26T00:09:54.286Z,56.22
2022-12-26T00:12:24.381Z,56.20
2022-12-26T00:14:54.650Z,56.30
2022-12-26T00:17:24.819Z,56.30
2022-12-26T00:19:54.825Z,56.39
2022-12-26T00:22:25.042Z,56.63
2022-12-26T00:24:55.066Z,56.55
2022-12-26T00:27:25.440Z,56.64
2022-12-26T00:29:55.647Z,56.48
2022-12-26T00:32:25.891Z,56.58
2022-12-26T00:34:56.078Z,56.89
2022-12-26T00:37:26.273Z,56.78
2022-12-26T00:39:56.463Z,56.73
2022-12-26T00:42:28.889Z,56.66
2022-12-26T00:44:59.093Z,56.53
2022-12-26T00:47:29.090Z,56.52
2022-12-26T00:50:12.539Z,56.74
2022-12-26T00:52:45.890Z,56.50
2022-12-26T00:55:16.062Z,56.53
2022-12-26T00:57:46.266Z,56.60
2022-12-26T01:00:17.067Z,56.63
2022-12-26T01:02:47.351Z,56.26
2022-12-26T01:05:18.229Z,56.49
2022-12-26T01:08:23.073Z,56.28
2022-12-26T01:10:38.962Z,55.95
2022-12-26T01:13:09.174Z,56.05
2022-12-26T01:15:39.365Z,55.66
2022-12-26T01:18:09.571Z,55.95
2022-12-26T01:20:41.850Z,55.72
2022-12-26T01:23:12.115Z,55.55
2022-12-26T01:26:18.065Z,55.78
2022-12-26T01:28:33.045Z,55.75
2022-12-26T01:31:08.251Z,55.58
2022-12-26T01:33:38.737Z,55.27
2022-12-26T01:36:09.427Z,55.38
2022-12-26T01:38:39.984Z,55.50
2022-12-26T01:41:19.647Z,55.32
2022-12-26T01:44:02.542Z,55.30
2022-12-26T01:46:41.805Z,55.40
2022-12-26T01:49:37.518Z,55.22
2022-12-26T01:52:11.543Z,55.25
2022-12-26T01:54:47.526Z,55.09
2022-12-26T01:57:33.738Z,54.88
2022-12-26T02:00:05.534Z,55.01
2022-12-26T02:03:02.911Z,54.75
2022-12-26T02:05:37.551Z,54.68
2022-12-26T02:08:24.109Z,54.71
2022-12-26T02:10:59.808Z,54.70
2022-12-26T02:13:32.951Z,54.90
2022-12-26T02:16:04.732Z,54.56
2022-12-26T02:18:35.056Z,54.66
2022-12-26T02:21:26.732Z,54.63
2022-12-26T02:24:30.614Z,54.64
2022-12-26T02:27:25.064Z,54.71
2022-12-26T02:30:15.163Z,54.76
2022-12-26T02:33:02.168Z,54.75
2022-12-26T02:36:03.900Z,54.86
2022-12-26T02:38:50.682Z,54.59
2022-12-26T02:41:29.058Z,54.72
2022-12-26T02:44:33.609Z,54.57
2022-12-26T02:47:18.630Z,54.61
2022-12-26T02:50:06.930Z,54.70
2022-12-26T02:53:28.678Z,54.65
2022-12-26T02:56:31.340Z,54.76
2022-12-26T02:59:53.760Z,54.51
2022-12-26T03:02:55.317Z,54.54
2022-12-26T03:05:52.988Z,54.63
2022-12-26T03:08:51.373Z,54.58
2022-12-26T03:11:39.720Z,54.68
2022-12-26T03:14:40.357Z,54.71
2022-12-26T03:17:22.631Z,54.68
2022-12-26T03:20:12.953Z,54.75
2022-12-26T03:22:47.943Z,54.69
2022-12-26T03:25:40.798Z,54.79
2022-12-26T03:28:14.038Z,54.68
2022-12-26T03:30:54.409Z,54.66
2022-12-26T03:33:43.805Z,54.59
2022-12-26T03:36:34.534Z,54.79
2022-12-26T03:40:01.477Z,54.65
2022-12-26T03:43:07.513Z,54.75
2022-12-26T03:46:05.214Z,54.78
2022-12-26T03:49:06.491Z,54.73
2022-12-26T03:51:59.315Z,54.39
2022-12-26T03:55:16.586Z,54.67
2022-12-26T03:58:20.163Z,54.46
2022-12-26T04:01:11.493Z,54.58
2022-12-26T04:04:03.319Z,54.17
2022-12-26T04:07:05.398Z,54.21
2022-12-26T04:10:06.788Z,53.99
2022-12-26T04:12:58.669Z,53.85
2022-12-26T04:15:58.302Z,53.72
2022-12-26T04:18:59.266Z,53.56
2022-12-26T04:21:55.332Z,53.52
2022-12-26T04:24:49.804Z,53.36
2022-12-26T04:27:41.980Z,53.71
2022-12-26T04:30:30.855Z,53.38
2022-12-26T04:33:27.155Z,53.46
2022-12-26T04:36:41.694Z,53.16
2022-12-26T04:39:33.197Z,52.95
2022-12-26T04:42:22.997Z,53.07
2022-12-26T04:44:53.741Z,52.53
2022-12-26T04:47:25.547Z,52.76
2022-12-26T04:50:13.780Z,52.88
2022-12-26T04:53:03.609Z,52.65
2022-12-26T04:55:38.013Z,52.18
2022-12-26T04:58:08.135Z,52.26
2022-12-26T05:00:38.113Z,51.96
2022-12-26T05:03:26.699Z,51.84
2022-12-26T05:06:15.299Z,51.78
2022-12-26T05:09:06.126Z,51.62
2022-12-26T05:11:37.917Z,51.24
2022-12-26T05:14:08.479Z,51.43
2022-12-26T05:16:56.883Z,51.00
2022-12-26T05:20:02.508Z,51.31
2022-12-26T05:22:53.805Z,51.36
2022-12-26T05:25:55.526Z,51.37
2022-12-26T05:29:00.427Z,51.02
2022-12-26T05:31:36.145Z,51.01
2022-12-26T05:34:12.912Z,51.34
2022-12-26T05:36:48.883Z,51.09
2022-12-26T05:39:19.237Z,50.58
2022-12-26T05:41:49.449Z,50.57
2022-12-26T05:44:19.682Z,49.97
2022-12-26T05:46:50.304Z,49.94
2022-12-26T05:49:20.556Z,49.93
2022-12-26T05:51:50.810Z,49.63
2022-12-26T05:54:21.025Z,49.66
2022-12-26T05:56:51.192Z,49.59
2022-12-26T05:59:21.418Z,49.51
2022-12-26T06:01:51.786Z,49.72
2022-12-26T06:04:22.180Z,49.52
2022-12-26T06:06:52.501Z,49.44
2022-12-26T06:09:22.607Z,49.08
2022-12-26T06:11:52.758Z,49.12
2022-12-26T06:14:23.017Z,48.96
2022-12-26T06:16:53.390Z,49.24
2022-12-26T06:19:23.608Z,49.62
2022-12-26T06:21:53.698Z,49.17
2022-12-26T06:24:23.776Z,48.96
2022-12-26T06:26:55.807Z,49.16
2022-12-26T06:29:25.939Z,49.09
2022-12-26T06:31:56.358Z,49.21
2022-12-26T06:34:29.956Z,49.21
2022-12-26T06:37:00.137Z,49.35
2022-12-26T06:39:30.349Z,49.05
2022-12-26T06:42:01.028Z,48.75
2022-12-26T06:44:31.200Z,48.90
2022-12-26T06:47:01.476Z,49.06
2022-12-26T06:49:33.302Z,49.37
2022-12-26T06:52:03.748Z,49.18
2022-12-26T06:54:33.923Z,49.08
2022-12-26T06:57:05.614Z,49.16
2022-12-26T06:59:35.766Z,48.97
2022-12-26T07:02:05.920Z,49.39
2022-12-26T07:04:36.061Z,49.70
2022-12-26T07:07:06.099Z,49.36
2022-12-26T07:09:36.212Z,49.83
2022-12-26T07:12:06.397Z,49.63
2022-12-26T07:14:36.535Z,48.93
2022-12-26T07:17:06.596Z,49.42
2022-12-26T07:19:37.225Z,49.05
2022-12-26T07:22:07.509Z,48.59
2022-12-26T07:24:37.688Z,48.74
2022-12-26T07:27:07.759Z,49.03
2022-12-26T07:29:38.321Z,49.32
2022-12-26T07:32:09.217Z,48.94
2022-12-26T07:34:39.394Z,48.76
2022-12-26T07:37:09.456Z,49.27
2022-12-26T07:39:39.978Z,49.35
2022-12-26T07:42:10.246Z,49.13
2022-12-26T07:44:41.718Z,48.90
2022-12-26T07:47:11.494Z,48.99
2022-12-26T07:49:41.496Z,49.03
2022-12-26T07:52:11.641Z,49.09
2022-12-26T07:54:41.827Z,49.00
2022-12-26T08:00:02.328Z,48.62
2022-12-26T08:02:41.852Z,49.24
2022-12-26T08:05:12.209Z,48.40
2022-12-26T08:07:42.331Z,48.96
2022-12-26T08:10:12.502Z,49.48
2022-12-26T08:12:42.785Z,49.19
2022-12-26T08:15:15.980Z,48.53
2022-12-26T08:17:46.179Z,49.15
2022-12-26T08:20:16.421Z,49.73
2022-12-26T08:22:46.852Z,49.50
2022-12-26T08:25:20.185Z,49.85
2022-12-26T08:27:54.235Z,49.22
2022-12-26T08:30:24.481Z,49.82
2022-12-26T08:32:54.620Z,49.99
2022-12-26T08:35:24.575Z,49.83
2022-12-26T08:37:54.496Z,49.84
2022-12-26T08:40:41.964Z,50.02
2022-12-26T08:46:12.849Z,50.06
2022-12-26T08:48:43.998Z,50.06
2022-12-26T08:51:23.219Z,50.06
2022-12-26T08:53:55.544Z,49.36
2022-12-26T08:56:28.505Z,49.43
2022-12-26T08:58:59.058Z,49.99
2022-12-26T09:01:32.495Z,49.74
2022-12-26T09:04:05.747Z,49.98
2022-12-26T09:06:38.758Z,50.04
2022-12-26T09:09:11.090Z,50.04
2022-12-26T09:11:42.987Z,49.97
2022-12-26T09:14:14.516Z,50.28
2022-12-26T09:16:50.919Z,49.85
2022-12-26T09:19:23.262Z,49.72
2022-12-26T09:22:13.685Z,50.41
2022-12-26T09:24:44.268Z,50.36
2022-12-26T09:27:14.420Z,50.52
2022-12-26T09:29:45.140Z,50.18
2022-12-26T09:32:15.390Z,50.34
2022-12-26T09:34:45.753Z,50.35
2022-12-26T09:37:16.175Z,50.57
2022-12-26T09:39:46.510Z,50.44
2022-12-26T09:42:46.023Z,50.68
2022-12-26T09:45:22.288Z,50.56
2022-12-26T09:48:06.885Z,50.66
2022-12-26T09:50:43.357Z,50.73
2022-12-26T09:53:36.723Z,50.71
2022-12-26T09:56:23.721Z,50.75
2022-12-26T09:59:14.027Z,50.59
2022-12-26T10:01:45.738Z,50.95
2022-12-26T10:04:34.151Z,50.85
2022-12-26T10:07:22.572Z,50.85
2022-12-26T10:10:24.541Z,50.90
2022-12-26T10:13:20.912Z,50.93
2022-12-26T10:16:01.618Z,50.77
2022-12-26T10:18:54.201Z,50.74
2022-12-26T10:21:54.199Z,50.78
2022-12-26T10:24:29.555Z,50.82
2022-12-26T10:27:18.013Z,50.70
2022-12-26T10:30:02.502Z,50.74
2022-12-26T10:32:48.161Z,50.86
2022-12-26T10:35:46.237Z,51.23
2022-12-26T10:38:38.178Z,51.11
2022-12-26T10:41:22.944Z,50.92
2022-12-26T10:43:53.411Z,51.14
2022-12-26T10:46:32.451Z,51.18
2022-12-26T10:49:02.957Z,51.42
2022-12-26T10:51:33.366Z,51.21
2022-12-26T10:54:03.493Z,51.41
2022-12-26T10:56:34.560Z,51.21
2022-12-26T10:59:08.555Z,51.19
2022-12-26T11:01:42.092Z,51.35
2022-12-26T11:05:10.474Z,51.26
2022-12-26T11:07:34.136Z,51.34
2022-12-26T11:10:05.444Z,51.22
2022-12-26T11:12:44.232Z,51.25
2022-12-26T11:15:37.015Z,51.08
2022-12-26T11:18:26.596Z,51.19
2022-12-26T11:20:57.050Z,50.95
2022-12-26T11:23:28.823Z,50.77
2022-12-26T11:26:01.308Z,50.48
2022-12-26T11:28:34.858Z,50.66
2022-12-26T11:31:09.097Z,50.30
2022-12-26T11:33:45.873Z,50.76
2022-12-26T11:36:18.658Z,50.70
2022-12-26T11:39:07.976Z,50.64
2022-12-26T11:41:44.662Z,50.67
2022-12-26T11:44:24.364Z,50.99
2022-12-26T11:47:02.941Z,50.95
2022-12-26T11:49:35.926Z,51.21
2022-12-26T11:52:52.510Z,51.50
2022-12-26T11:55:22.696Z,51.69
2022-12-26T11:58:19.953Z,51.80
2022-12-26T12:00:52.957Z,51.89
2022-12-26T12:03:35.086Z,51.90
2022-12-26T12:06:29.551Z,51.99
2022-12-26T12:09:11.887Z,52.19
2022-12-26T12:12:14.048Z,52.27
2022-12-26T12:15:23.193Z,52.10
2022-12-26T12:18:08.549Z,52.27
2022-12-26T12:20:54.966Z,52.12
2022-12-26T12:23:37.605Z,52.16
2022-12-26T12:26:34.932Z,52.05
2022-12-26T12:29:07.694Z,52.34
2022-12-26T12:32:11.675Z,52.20
2022-12-26T12:35:10.557Z,52.18
2022-12-26T12:38:15.274Z,52.10
2022-12-26T12:40:54.361Z,52.00
2022-12-26T12:43:45.980Z,52.06
2022-12-26T12:46:24.818Z,52.11
2022-12-26T12:49:16.252Z,52.01
2022-12-26T12:51:55.397Z,52.21
2022-12-26T12:54:54.985Z,52.57
2022-12-26T12:57:39.949Z,52.94
2022-12-26T13:00:21.857Z,52.45
2022-12-26T13:03:21.546Z,52.34
2022-12-26T13:05:51.748Z,52.56
2022-12-26T13:08:33.969Z,53.01
2022-12-26T13:11:28.546Z,52.92
2022-12-26T13:14:02.038Z,52.77
2022-12-26T13:16:38.735Z,52.81
2022-12-26T13:19:14.709Z,53.00
2022-12-26T13:21:46.064Z,52.77
2022-12-26T13:24:43.227Z,52.66
2022-12-26T13:27:35.043Z,52.75
2022-12-26T13:30:18.481Z,52.82
2022-12-26T13:32:49.022Z,52.28
2022-12-26T13:35:54.854Z,51.93
2022-12-26T13:38:26.676Z,51.71
2022-12-26T13:41:19.729Z,51.82
2022-12-26T13:44:27.681Z,51.75
2022-12-26T13:47:00.199Z,51.46
2022-12-26T13:52:14.071Z,51.16
2022-12-26T13:54:50.259Z,51.36
2022-12-26T13:57:29.736Z,50.79
2022-12-26T14:00:20.843Z,50.30
2022-12-26T14:03:24.694Z,49.97
2022-12-26T14:06:20.215Z,49.99
2022-12-26T14:09:08.762Z,50.09
2022-12-26T14:11:56.954Z,49.92
2022-12-26T14:14:53.955Z,49.75
2022-12-26T14:17:39.196Z,49.79
2022-12-26T14:20:25.957Z,49.78
2022-12-26T14:23:25.290Z,49.73
2022-12-26T14:26:16.496Z,49.84
2022-12-26T14:28:57.982Z,49.65
2022-12-26T14:32:05.943Z,49.63
2022-12-26T14:35:26.592Z,49.81
2022-12-26T14:38:08.350Z,49.65
2022-12-26T14:40:40.748Z,49.39
2022-12-26T14:43:19.981Z,49.50
2022-12-26T14:45:55.045Z,49.46
2022-12-26T14:48:25.240Z,49.29
2022-12-26T14:51:19.378Z,49.27
2022-12-26T14:54:32.658Z,49.37
2022-12-26T14:57:03.226Z,49.23
2022-12-26T14:59:37.580Z,49.27
2022-12-26T15:02:36.578Z,49.29
2022-12-26T15:05:06.917Z,49.53
2022-12-26T15:07:42.930Z,49.50
2022-12-26T15:10:21.886Z,49.63
2022-12-26T15:13:27.005Z,49.58
2022-12-26T15:16:25.178Z,49.67
2022-12-26T15:19:13.629Z,49.75
2022-12-26T15:22:14.611Z,50.37
2022-12-26T15:28:28.021Z,50.95
2022-12-26T15:31:08.668Z,50.83
2022-12-26T15:33:49.168Z,50.94
2022-12-26T15:36:43.092Z,50.99
2022-12-26T15:39:57.570Z,51.40
2022-12-26T15:42:38.654Z,51.18
2022-12-26T15:45:20.553Z,51.19
2022-12-26T15:47:56.154Z,51.24
2022-12-26T15:51:05.892Z,51.34
2022-12-26T15:54:00.704Z,51.23
2022-12-26T15:56:47.206Z,51.28
2022-12-26T15:59:46.703Z,51.20
2022-12-26T16:02:35.573Z,51.41
2022-12-26T16:05:12.517Z,51.34
2022-12-26T16:07:53.140Z,51.31
2022-12-26T16:10:33.809Z,51.51
2022-12-26T16:13:07.132Z,51.62
2022-12-26T16:15:46.817Z,51.62
2022-12-26T16:18:33.165Z,51.61
2022-12-26T16:21:25.454Z,51.63
2022-12-26T16:23:58.924Z,51.35
2022-12-26T16:26:32.640Z,51.95
2022-12-26T16:29:03.933Z,51.79
2022-12-26T16:31:34.297Z,51.82
2022-12-26T16:34:04.673Z,51.60
2022-12-26T16:36:38.058Z,51.77
2022-12-26T16:39:13.448Z,51.77
2022-12-26T16:42:01.738Z,51.87
2022-12-26T16:44:38.501Z,51.87
2022-12-26T16:47:13.374Z,51.45
2022-12-26T16:49:45.549Z,52.17
2022-12-26T16:52:51.635Z,51.81
2022-12-26T16:55:33.783Z,52.20
2022-12-26T16:58:13.952Z,52.01
2022-12-26T17:00:53.847Z,52.31
2022-12-26T17:03:53.418Z,52.01
2022-12-26T17:06:31.276Z,52.24
2022-12-26T17:09:17.374Z,52.10
2022-12-26T17:12:01.457Z,52.33
2022-12-26T17:14:35.781Z,52.41
2022-12-26T17:17:10.516Z,52.55
2022-12-26T17:19:40.719Z,52.69
2022-12-26T17:22:35.985Z,52.63
2022-12-26T17:25:23.579Z,52.77
2022-12-26T17:28:13.060Z,53.05
2022-12-26T17:30:47.916Z,52.94
2022-12-26T17:33:31.310Z,52.92
2022-12-26T17:39:25.276Z,52.75
2022-12-26T17:41:59.241Z,53.10
2022-12-26T17:44:39.228Z,53.20
2022-12-26T17:47:16.417Z,53.18
2022-12-26T17:49:46.770Z,53.23
2022-12-26T17:52:19.250Z,53.24
2022-12-26T17:54:51.492Z,53.25
2022-12-26T17:57:24.925Z,53.34
2022-12-26T17:59:56.415Z,53.42
2022-12-26T18:02:26.560Z,53.45
2022-12-26T18:04:58.075Z,53.47
2022-12-26T18:07:31.543Z,53.39
2022-12-26T18:10:05.873Z,53.62
2022-12-26T18:12:37.556Z,53.74
2022-12-26T18:15:08.000Z,53.41
2022-12-26T18:17:38.269Z,53.43
2022-12-26T18:20:10.867Z,53.28
2022-12-26T18:22:40.985Z,53.43
2022-12-26T18:25:15.548Z,53.31
2022-12-26T18:27:46.105Z,53.24
2022-12-26T18:30:22.579Z,53.53
2022-12-26T18:32:54.639Z,53.52
2022-12-26T18:35:25.090Z,53.76
2022-12-26T18:37:56.308Z,53.44
2022-12-26T18:40:34.459Z,53.78
2022-12-26T18:43:05.936Z,53.66
2022-12-26T18:45:36.023Z,53.81
2022-12-26T18:48:06.455Z,53.83
2022-12-26T18:50:37.772Z,53.76
2022-12-26T18:53:07.723Z,53.95
2022-12-26T18:55:37.918Z,54.03
2022-12-26T18:58:08.828Z,54.24
2022-12-26T19:00:39.023Z,54.19
2022-12-26T19:03:09.117Z,54.29
2022-12-26T19:05:39.098Z,54.29
2022-12-26T19:08:09.523Z,54.34
2022-12-26T19:10:39.741Z,54.45
2022-12-26T19:13:09.932Z,54.35
2022-12-26T19:15:40.125Z,54.55
2022-12-26T19:18:10.671Z,54.67
2022-12-26T19:20:44.173Z,54.52
2022-12-26T19:23:14.751Z,54.71
2022-12-26T19:25:45.052Z,54.61
2022-12-26T19:28:15.521Z,54.67
2022-12-26T19:30:45.733Z,54.75
2022-12-26T19:33:16.019Z,54.85
2022-12-26T19:35:46.219Z,54.88
2022-12-26T19:38:16.531Z,54.82
2022-12-26T19:40:46.672Z,55.03
2022-12-26T19:43:18.039Z,54.73
2022-12-26T19:45:48.281Z,54.85
2022-12-26T19:48:18.743Z,54.72
2022-12-26T19:50:48.941Z,54.89
2022-12-26T19:53:19.204Z,55.01
2022-12-26T19:55:49.383Z,55.11
2022-12-26T19:58:19.386Z,55.15
2022-12-26T20:00:49.525Z,55.11
2022-12-26T20:03:19.869Z,55.00
2022-12-26T20:05:51.403Z,55.04
2022-12-26T20:08:21.228Z,54.82
2022-12-26T20:10:53.600Z,54.86
2022-12-26T20:13:27.438Z,55.14
2022-12-26T20:15:57.489Z,55.22
2022-12-26T20:18:27.473Z,55.22
2022-12-26T20:20:57.520Z,55.42
2022-12-26T20:23:27.750Z,55.35
2022-12-26T20:26:01.001Z,55.35
2022-12-26T20:28:31.903Z,55.59
2022-12-26T20:31:13.041Z,55.71
2022-12-26T20:33:46.637Z,55.53
2022-12-26T20:36:19.260Z,55.65
2022-12-26T20:38:49.865Z,55.66
2022-12-26T20:41:20.467Z,55.57
2022-12-26T20:43:51.996Z,55.51
2022-12-26T20:46:25.219Z,55.35
2022-12-26T20:48:55.882Z,55.47
2022-12-26T20:51:36.836Z,55.40
2022-12-26T20:54:09.412Z,55.44
2022-12-26T20:56:40.452Z,55.39
2022-12-26T20:59:14.256Z,55.40
2022-12-26T21:01:44.911Z,55.67
2022-12-26T21:04:21.967Z,55.64
2022-12-26T21:06:52.578Z,55.71
2022-12-26T21:09:24.028Z,55.40
2022-12-26T21:11:55.557Z,55.49
2022-12-26T21:14:26.746Z,55.57
2022-12-26T21:16:59.983Z,55.57
2022-12-26T21:19:31.753Z,55.60
2022-12-26T21:22:02.203Z,55.84
2022-12-26T21:24:34.571Z,55.86
2022-12-26T21:27:06.502Z,55.78
2022-12-26T21:29:37.772Z,55.77
2022-12-26T21:32:09.294Z,55.67
2022-12-26T21:34:39.787Z,55.68
2022-12-26T21:37:28.216Z,55.78
2022-12-26T21:39:58.416Z,55.80
2022-12-26T21:42:28.636Z,56.01
2022-12-26T21:44:58.824Z,55.68
2022-12-26T21:47:28.888Z,55.83
2022-12-26T21:49:58.991Z,55.67
2022-12-26T21:52:29.086Z,55.81
2022-12-26T21:55:17.275Z,56.10
2022-12-26T21:57:47.941Z,56.06
2022-12-26T22:00:18.655Z,56.11
2022-12-26T22:03:07.957Z,56.02
2022-12-26T22:05:41.009Z,56.01
2022-12-26T22:08:14.021Z,56.22
2022-12-26T22:11:07.234Z,56.21
2022-12-26T22:13:47.800Z,56.12
2022-12-26T22:16:18.550Z,56.04
2022-12-26T22:18:49.926Z,55.84
2022-12-26T22:21:23.118Z,55.61
2022-12-26T22:23:55.934Z,56.11
2022-12-26T22:26:26.800Z,56.36
2022-12-26T22:28:58.871Z,56.68
2022-12-26T22:31:35.694Z,56.58
2022-12-26T22:34:14.211Z,56.78
2022-12-26T22:36:45.580Z,56.53
2022-12-26T22:39:16.482Z,56.35
2022-12-26T22:41:48.114Z,56.44
2022-12-26T22:44:18.340Z,56.09
2022-12-26T22:46:48.397Z,56.05
2022-12-26T22:49:20.121Z,56.10
2022-12-26T22:51:49.938Z,55.92
2022-12-26T22:54:19.958Z,55.96
2022-12-26T22:57:39.136Z,55.84
2022-12-26T23:00:13.989Z,55.17
2022-12-26T23:02:44.349Z,55.51
2022-12-26T23:05:15.132Z,55.81
2022-12-26T23:07:45.703Z,55.99
2022-12-26T23:10:22.405Z,55.80
2022-12-26T23:12:54.004Z,55.77
2022-12-26T23:15:27.111Z,55.86
2022-12-26T23:18:51.408Z,55.55
2022-12-26T23:21:42.499Z,55.62
2022-12-26T23:24:15.879Z,55.62
2022-12-26T23:26:51.825Z,55.76
2022-12-26T23:29:42.811Z,55.65
2022-12-26T23:32:13.631Z,55.44
2022-12-26T23:34:43.718Z,55.67
2022-12-26T23:37:13.691Z,55.62
2022-12-26T23:39:43.641Z,55.70
2022-12-26T23:42:13.592Z,55.58
2022-12-26T23:44:43.606Z,55.57
2022-12-26T23:47:13.684Z,55.65
2022-12-26T23:49:43.704Z,55.68
2022-12-26T23:52:13.676Z,55.65
2022-12-26T23:54:43.762Z,55.58
2022-12-26T23:57:13.849Z,55.75
2022-12-26T23:59:43.875Z,55.75
